»·PEaware :: N123MS KBUR-KLAS

N123MS :: KBUR-KLAS

FLIGHT INFORMATION

Flight Status: Arrived
Operator: Privately registered:
United States
More flights under this callsign
Pilot: Anonymous 23958 (23958)
Aircraft: MOONEY M-20 201 202 205 220 ATS MSE
(M20P)
More flights by this aircraft type
Origin: KBUR Bob Hope-Burbank
United States
Destination: KLAS McCarran Intl
United States
More flights between these airports :: More routes between these airports
Route: VNY3 DAG CRESO4
File this flight plan on PilotEdge
Remarks: I-5 Rating
Altitude:
(Current/Filed)
13,000ft
Speed:
(Current/Filed)
160kts
Departed: 16-Mar-20 07:23 PM
Arrived: 16-Mar-20 10:36 PM
Distance/Time
Traveled:
193nm/3:12
Distance/Time
To Go:
Arrived

Flight Plot

Page will automatically refresh every two minutes.

Flight plan parsing failed; only flown route is shown


Map Options




Map Legend


Flown Route
Filed Route
Departure Airport
Arrival Airport
Navaid (VOR, NDB)
Fix

Horizontal Profiles

Position Reports

Time Latitude Longitude Heading Altitude Ground
Speed
16-Mar-20 18:36 34.196881 -118.352678 180 781ft 0kts
16-Mar-20 18:37 34.196881 -118.352678 180 781ft 0kts
16-Mar-20 18:38 34.196881 -118.352678 180 781ft 0kts
16-Mar-20 18:39 34.196881 -118.352678 180 781ft 0kts
16-Mar-20 18:40 34.196881 -118.352678 180 781ft 0kts
16-Mar-20 18:41 34.196881 -118.352678 180 781ft 0kts
16-Mar-20 18:42 34.196881 -118.352678 180 781ft 0kts
16-Mar-20 18:43 34.196881 -118.352678 180 781ft 0kts
16-Mar-20 18:44 34.196881 -118.352678 180 781ft 0kts
16-Mar-20 18:45 34.196881 -118.352678 180 781ft 0kts
16-Mar-20 18:46 34.196881 -118.352678 180 781ft 0kts
16-Mar-20 18:47 34.196881 -118.352678 180 781ft 0kts
16-Mar-20 18:48 34.196881 -118.352678 180 781ft 0kts
16-Mar-20 18:49 34.196881 -118.352678 180 781ft 0kts
16-Mar-20 18:50 34.196881 -118.352678 180 781ft 0kts
16-Mar-20 18:51 34.196881 -118.352678 180 781ft 0kts
16-Mar-20 18:52 34.196881 -118.352678 180 781ft 0kts
16-Mar-20 18:53 34.196881 -118.352678 180 781ft 0kts
16-Mar-20 18:54 34.196881 -118.352678 180 781ft 0kts
16-Mar-20 18:55 34.196881 -118.352678 180 781ft 0kts
16-Mar-20 18:56 34.196881 -118.352678 180 781ft 0kts
16-Mar-20 18:57 34.196881 -118.352678 180 781ft 0kts
16-Mar-20 18:58 34.196881 -118.352678 180 781ft 0kts
16-Mar-20 18:59 34.196881 -118.352678 180 781ft 0kts
16-Mar-20 19:01 34.196881 -118.352678 180 781ft 0kts
16-Mar-20 19:01 34.196881 -118.352678 180 781ft 0kts
16-Mar-20 19:02 34.196757 -118.352677 180 781ft 0kts
16-Mar-20 19:03 34.196757 -118.352677 180 781ft 0kts
16-Mar-20 19:04 34.196757 -118.352677 180 781ft 0kts
16-Mar-20 19:05 34.196757 -118.352677 180 781ft 0kts
16-Mar-20 19:06 34.196757 -118.352677 180 781ft 0kts
16-Mar-20 19:07 34.196723 -118.352692 212 781ft 2kts
16-Mar-20 19:08 34.197009 -118.352985 316 781ft 4kts
16-Mar-20 19:09 34.197355 -118.354134 308 781ft 0kts
16-Mar-20 19:10 34.197450 -118.354543 315 781ft 2kts
16-Mar-20 19:11 34.198833 -118.355299 345 781ft 5kts
16-Mar-20 19:12 34.202080 -118.356196 345 781ft 12kts
16-Mar-20 19:13 34.205051 -118.357041 347 781ft 8kts
16-Mar-20 19:14 34.205762 -118.357235 347 781ft 1kts
16-Mar-20 19:15 34.206988 -118.357571 347 781ft 11kts
16-Mar-20 19:16 34.210458 -118.358519 353 781ft 0kts
16-Mar-20 19:17 34.210148 -118.358581 181 781ft 8kts
16-Mar-20 19:18 34.209865 -118.358901 254 781ft 0kts
16-Mar-20 19:19 34.209865 -118.358901 254 781ft 0kts
16-Mar-20 19:20 34.209865 -118.358902 254 781ft 0kts
16-Mar-20 19:21 34.209770 -118.359320 254 781ft 11kts
16-Mar-20 19:22 34.193504 -118.355356 167 1039ft 96kts
16-Mar-20 19:23 34.163564 -118.344913 162 1747ft 121kts
16-Mar-20 19:24 34.130022 -118.333285 162 2476ft 128kts
16-Mar-20 19:25 34.196881 -118.352678 180 781ft 0kts
16-Mar-20 19:26 34.196881 -118.352678 180 781ft 0kts
16-Mar-20 19:27 34.196881 -118.352678 180 781ft 0kts
16-Mar-20 19:28 34.196881 -118.352678 180 781ft 0kts
16-Mar-20 19:29 34.196881 -118.352678 180 781ft 0kts
16-Mar-20 19:30 34.196881 -118.352678 180 781ft 0kts
16-Mar-20 19:31 34.196881 -118.352678 180 781ft 0kts
16-Mar-20 19:32 34.196881 -118.352678 180 781ft 0kts
16-Mar-20 19:33 34.196881 -118.352678 180 781ft 0kts
16-Mar-20 19:34 34.196881 -118.352678 180 781ft 0kts
16-Mar-20 19:35 34.196881 -118.352678 180 781ft 0kts
16-Mar-20 19:36 34.196881 -118.352678 180 781ft 0kts
16-Mar-20 19:37 34.196881 -118.352678 180 781ft 0kts
16-Mar-20 19:38 34.196881 -118.352678 180 781ft 0kts
16-Mar-20 19:39 34.196881 -118.352678 180 781ft 0kts
16-Mar-20 19:40 34.196881 -118.352678 180 781ft 0kts
16-Mar-20 19:41 34.196881 -118.352678 180 781ft 0kts
16-Mar-20 19:42 34.196881 -118.352678 180 781ft 0kts
16-Mar-20 19:43 34.196881 -118.352678 180 781ft 0kts
16-Mar-20 19:44 34.196881 -118.352678 180 781ft 0kts
16-Mar-20 19:45 34.196881 -118.352678 180 781ft 0kts
16-Mar-20 19:46 34.196881 -118.352678 180 781ft 0kts
16-Mar-20 19:47 34.196881 -118.352678 180 781ft 0kts
16-Mar-20 19:48 34.196881 -118.352678 180 781ft 0kts
16-Mar-20 19:49 34.196881 -118.352678 180 781ft 0kts
16-Mar-20 19:50 34.196881 -118.352678 180 781ft 0kts
16-Mar-20 19:51 34.196881 -118.352678 180 781ft 0kts
16-Mar-20 19:52 34.196881 -118.352678 180 781ft 0kts
16-Mar-20 19:53 34.196881 -118.352678 180 781ft 0kts
16-Mar-20 19:54 34.196881 -118.352678 180 781ft 0kts
16-Mar-20 19:55 34.196881 -118.352678 180 781ft 0kts
16-Mar-20 19:56 34.196881 -118.352678 180 781ft 0kts
16-Mar-20 19:57 34.196881 -118.352678 180 781ft 0kts
16-Mar-20 19:58 34.196881 -118.352678 180 781ft 0kts
16-Mar-20 19:59 34.196881 -118.352678 180 781ft 0kts
16-Mar-20 20:00 34.196881 -118.352678 180 781ft 0kts
16-Mar-20 20:01 34.196881 -118.352678 180 781ft 0kts
16-Mar-20 20:02 34.196881 -118.352678 180 781ft 0kts
16-Mar-20 20:03 34.196881 -118.352678 180 781ft 0kts
16-Mar-20 20:04 34.196881 -118.352678 180 781ft 0kts
16-Mar-20 20:05 34.196881 -118.352678 180 781ft 0kts
16-Mar-20 20:07 34.196881 -118.352678 180 781ft 0kts
16-Mar-20 20:08 34.196881 -118.352678 180 781ft 0kts
16-Mar-20 20:09 34.196881 -118.352678 180 781ft 0kts
16-Mar-20 20:10 34.196881 -118.352678 180 781ft 0kts
16-Mar-20 20:11 34.196881 -118.352678 180 781ft 0kts
16-Mar-20 20:12 34.196881 -118.352678 180 781ft 0kts
16-Mar-20 20:13 34.196881 -118.352678 180 781ft 0kts
16-Mar-20 20:14 34.196881 -118.352678 180 781ft 0kts
16-Mar-20 20:15 34.196881 -118.352678 180 781ft 0kts
16-Mar-20 20:16 34.196881 -118.352678 180 781ft 0kts
16-Mar-20 20:17 34.196881 -118.352678 180 781ft 0kts
16-Mar-20 20:18 34.196881 -118.352678 180 781ft 0kts
16-Mar-20 20:19 34.196881 -118.352678 180 781ft 0kts
16-Mar-20 20:20 34.196881 -118.352678 180 781ft 0kts
16-Mar-20 20:21 34.196881 -118.352678 180 781ft 0kts
16-Mar-20 20:22 34.196881 -118.352678 180 781ft 0kts
16-Mar-20 20:23 34.196881 -118.352678 180 781ft 0kts
16-Mar-20 20:24 34.196881 -118.352678 180 781ft 0kts
16-Mar-20 20:25 34.196881 -118.352678 180 781ft 0kts
16-Mar-20 20:26 34.196881 -118.352678 180 781ft 0kts
16-Mar-20 20:26 34.196881 -118.352678 180 781ft 0kts
16-Mar-20 20:28 34.196881 -118.352678 180 781ft 0kts
16-Mar-20 20:29 34.196881 -118.352678 180 781ft 0kts
16-Mar-20 20:29 34.196881 -118.352678 180 781ft 0kts
16-Mar-20 20:30 34.196881 -118.352678 180 781ft 0kts
16-Mar-20 20:32 34.196881 -118.352678 180 781ft 0kts
16-Mar-20 20:32 34.196881 -118.352678 180 781ft 0kts
16-Mar-20 20:33 34.196881 -118.352678 180 781ft 0kts
16-Mar-20 20:34 34.196881 -118.352678 180 781ft 0kts
16-Mar-20 20:35 34.196881 -118.352678 180 781ft 0kts
16-Mar-20 20:36 34.196881 -118.352678 180 781ft 0kts
16-Mar-20 20:38 34.196881 -118.352678 180 781ft 0kts
16-Mar-20 20:38 34.196881 -118.352678 180 781ft 0kts
16-Mar-20 20:39 34.196881 -118.352678 180 781ft 0kts
16-Mar-20 20:40 34.196881 -118.352678 180 781ft 0kts
16-Mar-20 20:41 34.196881 -118.352678 180 781ft 0kts
16-Mar-20 20:42 34.196880 -118.352678 180 781ft 0kts
16-Mar-20 20:43 34.196880 -118.352678 180 781ft 0kts
16-Mar-20 20:44 34.196880 -118.352678 180 781ft 0kts
16-Mar-20 20:45 34.196879 -118.352678 180 781ft 0kts
16-Mar-20 20:46 34.196879 -118.352678 179 781ft 0kts
16-Mar-20 20:47 34.196879 -118.352678 180 781ft 0kts
16-Mar-20 20:48 34.196878 -118.352678 179 781ft 0kts
16-Mar-20 20:49 34.196878 -118.352678 179 781ft 0kts
16-Mar-20 20:50 34.196866 -118.352824 318 781ft 0kts
16-Mar-20 20:51 34.197112 -118.353795 265 781ft 4kts
16-Mar-20 20:52 34.197077 -118.354842 282 781ft 0kts
16-Mar-20 20:53 34.200127 -118.355659 348 781ft 30kts
16-Mar-20 20:54 34.210346 -118.358529 346 781ft 41kts
16-Mar-20 20:55 34.212277 -118.359613 269 781ft 0kts
16-Mar-20 20:56 34.212277 -118.359613 269 781ft 0kts
16-Mar-20 20:57 34.212109 -118.360224 228 781ft 14kts
16-Mar-20 20:58 34.194144 -118.355282 168 1080ft 97kts
16-Mar-20 20:59 34.170176 -118.377450 222 1841ft 125kts
16-Mar-20 21:00 34.145307 -118.409785 249 2592ft 136kts
16-Mar-20 21:01 34.146639 -118.455392 270 3434ft 132kts
16-Mar-20 21:02 34.168801 -118.484136 346 4427ft 144kts
16-Mar-20 21:03 34.210077 -118.489896 346 5212ft 156kts
16-Mar-20 21:04 34.224043 -118.524975 259 5925ft 133kts
16-Mar-20 21:05 34.241513 -118.560578 355 6647ft 172kts
16-Mar-20 21:06 34.288372 -118.542690 12 7390ft 177kts
16-Mar-20 21:07 34.335566 -118.522796 22 8095ft 182kts
16-Mar-20 21:08 34.372807 -118.482415 60 8797ft 182kts
16-Mar-20 21:09 34.401584 -118.431397 56 9502ft 184kts
16-Mar-20 21:10 34.432589 -118.381753 56 10204ft 185kts
16-Mar-20 21:11 34.463796 -118.332014 58 10905ft 186kts
16-Mar-20 21:12 34.495133 -118.282076 59 11607ft 186kts
16-Mar-20 21:13 34.526606 -118.231834 59 12305ft 188kts
16-Mar-20 21:14 34.558709 -118.180457 59 12940ft 196kts
16-Mar-20 21:16 34.600403 -118.113547 58 12981ft 226kts
16-Mar-20 21:16 34.627867 -118.060194 80 13061ft 221kts
16-Mar-20 21:17 34.639593 -117.987381 91 13058ft 220kts
16-Mar-20 21:18 34.647909 -117.913592 91 13052ft 221kts
16-Mar-20 21:19 34.655978 -117.839321 92 13042ft 222kts
16-Mar-20 21:20 34.665520 -117.764921 85 13036ft 226kts
16-Mar-20 21:21 34.665520 -117.764921 85 13036ft 226kts
16-Mar-20 21:22 34.665520 -117.764921 85 13036ft 226kts
16-Mar-20 21:23 34.665520 -117.764921 85 13036ft 226kts
16-Mar-20 21:24 34.665520 -117.764921 85 13036ft 226kts
16-Mar-20 21:25 34.665520 -117.764921 85 13036ft 226kts
16-Mar-20 21:27 34.665520 -117.764921 85 13036ft 226kts
16-Mar-20 21:27 34.665520 -117.764921 85 13036ft 226kts
16-Mar-20 21:28 34.665520 -117.764921 85 13036ft 226kts
16-Mar-20 21:29 34.665520 -117.764921 85 13036ft 226kts
16-Mar-20 21:30 34.665520 -117.764921 85 13036ft 226kts
16-Mar-20 21:31 34.665520 -117.764921 85 13036ft 226kts
16-Mar-20 21:32 34.665520 -117.764921 85 13036ft 226kts
16-Mar-20 21:33 34.665520 -117.764921 85 13036ft 226kts
16-Mar-20 21:34 34.665520 -117.764921 85 13036ft 226kts
16-Mar-20 21:35 34.665520 -117.764921 85 13036ft 226kts
16-Mar-20 21:36 34.665520 -117.764921 85 13036ft 226kts
16-Mar-20 21:37 34.665520 -117.764921 85 13036ft 226kts
16-Mar-20 21:50 34.862422 -116.986493 78 13030ft 196kts
16-Mar-20 21:51 34.882209 -116.918680 80 13024ft 224kts
16-Mar-20 21:52 34.901563 -116.844779 81 13019ft 231kts
16-Mar-20 21:53 34.920135 -116.770116 82 13016ft 226kts
16-Mar-20 21:54 34.937347 -116.697852 82 13019ft 220kts
16-Mar-20 21:55 34.953974 -116.625860 83 13022ft 220kts
16-Mar-20 21:56 34.976739 -116.555946 68 13023ft 227kts
16-Mar-20 21:57 35.006896 -116.488262 68 13024ft 226kts
16-Mar-20 21:58 35.035756 -116.419985 67 13027ft 230kts
16-Mar-20 21:59 35.068598 -116.351282 66 13027ft 236kts
16-Mar-20 22:00 35.100715 -116.280905 67 13028ft 238kts
16-Mar-20 22:01 35.132441 -116.209381 67 13028ft 239kts
16-Mar-20 22:02 35.163896 -116.137713 68 13020ft 239kts
16-Mar-20 22:03 35.195132 -116.066125 68 13023ft 238kts
16-Mar-20 22:04 35.227638 -115.991599 67 12372ft 254kts
16-Mar-20 22:05 35.256619 -115.923664 70 11646ft 208kts
16-Mar-20 22:06 35.283601 -115.858860 68 11004ft 236kts
16-Mar-20 22:07 35.316578 -115.787436 57 10311ft 245kts
16-Mar-20 22:08 35.358860 -115.728300 50 10018ft 211kts
16-Mar-20 22:09 35.394838 -115.681249 55 10008ft 170kts
16-Mar-20 22:10 35.424481 -115.640065 56 10011ft 153kts
16-Mar-20 22:11 35.451963 -115.602349 56 10018ft 144kts
16-Mar-20 22:12 35.478246 -115.566439 57 10015ft 139kts
16-Mar-20 22:13 35.503829 -115.530858 55 10032ft 147kts
16-Mar-20 22:14 35.536273 -115.490278 52 10029ft 182kts
16-Mar-20 22:15 35.572650 -115.443126 52 10023ft 195kts
16-Mar-20 22:16 35.609791 -115.393737 53 10023ft 198kts
16-Mar-20 22:17 35.641301 -115.340059 54 10021ft 197kts
16-Mar-20 22:18 35.695211 -115.335297 349 10027ft 202kts
16-Mar-20 22:20 35.751248 -115.344553 349 10028ft 203kts
16-Mar-20 22:21 35.806467 -115.344558 37 10037ft 201kts
16-Mar-20 22:22 35.848592 -115.299862 47 10032ft 200kts
16-Mar-20 22:23 35.890029 -115.254033 47 10034ft 200kts
16-Mar-20 22:24 35.931483 -115.208030 47 10036ft 200kts
16-Mar-20 22:25 35.972908 -115.162206 47 10037ft 200kts
16-Mar-20 22:26 36.018702 -115.124852 2 9847ft 211kts
16-Mar-20 22:27 36.073246 -115.128326 355 8464ft 165kts
16-Mar-20 22:28 36.115659 -115.131674 355 6951ft 144kts
16-Mar-20 22:29 36.148220 -115.110587 55 5501ft 144kts
16-Mar-20 22:30 36.172161 -115.099387 236 4839ft 67kts
16-Mar-20 22:31 36.160731 -115.115140 218 4051ft 62kts
16-Mar-20 22:32 36.148239 -115.130271 209 3335ft 66kts
16-Mar-20 22:33 36.131437 -115.138693 194 2851ft 69kts
16-Mar-20 22:34 36.114599 -115.147518 206 2593ft 65kts
16-Mar-20 22:35 36.098128 -115.157089 205 2278ft 69kts
16-Mar-20 22:35 36.089229 -115.162954 286 2184ft 5kts
16-Mar-20 22:37 36.089266 -115.163089 288 2184ft 0kts
16-Mar-20 22:37 36.089833 -115.164303 0 2184ft 11kts
16-Mar-20 22:39 36.091496 -115.165243 56 2184ft 0kts
16-Mar-20 22:40 36.091496 -115.165243 56 2184ft 0kts

Navigation Log

Ident Type
Flight plan parsing failed, navigation log unavailable